Aviation Digital Data Service (ADDS)

Output produced by METARs form (0756 UTC 25 August 2016)
found at http://www.aviationweather.gov/adds/metars/
 
KESN 250749Z AUTO 00000KT 10SM CLR 20/20 A3018 RMK AO2 T02040196